createdAt,value
2022-11-19T06:05:16.495Z,100.00
2022-11-19T06:08:20.120Z,100.00
2022-11-19T06:10:47.674Z,100.00
2022-11-19T06:13:14.831Z,100.00
2022-11-19T06:15:41.381Z,100.00
2022-11-19T06:18:08.558Z,100.00
2022-11-19T06:20:35.089Z,100.00
2022-11-19T06:23:02.225Z,100.00
2022-11-19T06:25:29.543Z,100.00
2022-11-19T06:27:56.694Z,100.00
2022-11-19T06:30:23.224Z,100.00
2022-11-19T06:32:50.365Z,100.00
2022-11-19T06:35:17.109Z,100.00
2022-11-19T06:37:44.385Z,100.00
2022-11-19T06:40:11.681Z,100.00
2022-11-19T06:42:38.947Z,100.00
2022-11-19T06:45:14.782Z,100.00
2022-11-19T06:47:42.731Z,100.00
2022-11-19T06:50:10.568Z,100.00
2022-11-19T06:52:38.215Z,100.00
2022-11-19T06:55:05.174Z,100.00
2022-11-19T06:57:32.517Z,100.00
2022-11-19T06:59:59.066Z,100.00
2022-11-19T07:02:29.040Z,100.00
2022-11-19T07:04:55.717Z,100.00
2022-11-19T07:07:22.942Z,100.00
2022-11-19T07:09:49.515Z,100.00
2022-11-19T07:12:16.681Z,100.00
2022-11-19T07:14:43.290Z,100.00
2022-11-19T07:17:10.166Z,100.00
2022-11-19T07:19:36.731Z,100.00
2022-11-19T07:22:03.940Z,100.00
2022-11-19T07:24:30.469Z,100.00
2022-11-19T07:26:57.699Z,100.00
2022-11-19T07:29:24.409Z,100.00
2022-11-19T07:31:53.492Z,100.00
2022-11-19T07:34:20.690Z,100.00
2022-11-19T07:36:48.685Z,100.00
2022-11-19T07:39:15.560Z,100.00
2022-11-19T07:42:01.365Z,100.00
2022-11-19T07:44:27.922Z,100.00
2022-11-19T07:46:55.075Z,100.00
2022-11-19T07:49:22.192Z,100.00
2022-11-19T07:51:49.358Z,100.00
2022-11-19T07:54:16.307Z,100.00
2022-11-19T07:56:43.872Z,100.00
2022-11-19T07:59:11.125Z,100.00
2022-11-19T08:01:38.855Z,100.00
2022-11-19T08:04:05.784Z,100.00
2022-11-19T08:06:34.873Z,100.00
2022-11-19T08:09:03.810Z,100.00
2022-11-19T08:11:31.399Z,100.00
2022-11-19T08:14:01.796Z,100.00
2022-11-19T08:16:48.148Z,100.00
2022-11-19T08:19:16.141Z,100.00
2022-11-19T08:21:46.035Z,100.00
2022-11-19T08:24:13.791Z,100.00
2022-11-19T08:26:41.397Z,100.00
2022-11-19T08:29:13.029Z,100.00
2022-11-19T08:31:45.222Z,100.00
2022-11-19T08:34:12.279Z,100.00
2022-11-19T08:36:39.967Z,100.00
2022-11-19T08:39:06.981Z,100.00
2022-11-19T08:41:53.002Z,100.00
2022-11-19T08:44:20.083Z,100.00
2022-11-19T08:46:47.729Z,100.00
2022-11-19T08:49:14.463Z,100.00
2022-11-19T08:51:41.809Z,100.00
2022-11-19T08:54:08.742Z,100.00
2022-11-19T08:56:35.991Z,100.00
2022-11-19T08:59:03.486Z,100.00
2022-11-19T09:01:31.143Z,100.00
2022-11-19T09:03:57.898Z,100.00
2022-11-19T09:06:25.292Z,100.00
2022-11-19T09:08:52.025Z,100.00
2022-11-19T09:11:21.263Z,100.00
2022-11-19T09:13:48.825Z,100.00
2022-11-19T09:16:15.775Z,100.00
2022-11-19T09:18:43.259Z,100.00
2022-11-19T09:21:11.176Z,100.00
2022-11-19T09:23:39.430Z,100.00
2022-11-19T09:26:08.991Z,100.00
2022-11-19T09:28:36.538Z,100.00
2022-11-19T09:31:11.780Z,100.00
2022-11-19T09:33:44.766Z,100.00
2022-11-19T09:36:12.670Z,100.00
2022-11-19T09:38:41.184Z,100.00
2022-11-19T09:41:29.737Z,100.00
2022-11-19T09:44:49.990Z,100.00
2022-11-19T09:47:27.330Z,100.00
2022-11-19T09:50:18.254Z,100.00
2022-11-19T09:52:56.450Z,100.00
2022-11-19T09:55:31.710Z,100.00
2022-11-19T09:58:00.394Z,100.00
2022-11-19T10:00:30.002Z,100.00
2022-11-19T10:02:59.305Z,100.00
2022-11-19T10:05:35.247Z,100.00
2022-11-19T10:08:23.046Z,100.00
2022-11-19T10:10:55.183Z,100.00
2022-11-19T10:13:49.665Z,100.00
2022-11-19T10:16:28.682Z,100.00
2022-11-19T10:19:16.785Z,100.00
2022-11-19T10:21:59.105Z,100.00
2022-11-19T10:24:45.284Z,100.00
2022-11-19T10:27:30.812Z,100.00
2022-11-19T10:30:02.994Z,100.00
2022-11-19T10:32:37.505Z,100.00
2022-11-19T10:35:15.293Z,100.00
2022-11-19T10:37:53.754Z,100.00
2022-11-19T10:40:24.157Z,100.00
2022-11-19T10:43:01.868Z,100.00
2022-11-19T10:45:29.997Z,100.00
2022-11-19T10:48:09.385Z,100.00
2022-11-19T10:50:36.518Z,100.00
2022-11-19T10:53:26.983Z,100.00
2022-11-19T10:56:00.524Z,100.00
2022-11-19T10:58:37.225Z,100.00
2022-11-19T11:01:14.203Z,100.00
2022-11-19T11:03:49.351Z,100.00
2022-11-19T11:06:15.946Z,100.00
2022-11-19T11:08:51.966Z,100.00
2022-11-19T11:11:50.177Z,100.00
2022-11-19T11:14:38.941Z,100.00
2022-11-19T11:17:25.899Z,100.00
2022-11-19T11:20:03.753Z,100.00
2022-11-19T11:22:31.330Z,100.00
2022-11-19T11:25:04.258Z,100.00
2022-11-19T11:27:35.864Z,100.00
2022-11-19T11:30:05.984Z,100.00
2022-11-19T11:32:33.379Z,100.00
2022-11-19T11:35:05.113Z,100.00
2022-11-19T11:37:34.191Z,100.00
2022-11-19T11:40:01.222Z,100.00
2022-11-19T11:42:29.775Z,100.00
2022-11-19T11:44:59.838Z,100.00
2022-11-19T11:47:29.122Z,100.00
2022-11-19T18:41:39.743Z,42.73
2022-11-19T18:44:26.326Z,43.93
2022-11-19T18:46:52.893Z,44.42
2022-11-19T18:49:19.889Z,44.75
2022-11-19T18:51:47.850Z,44.63
2022-11-19T18:54:14.938Z,45.29
2022-11-19T18:56:41.625Z,44.51
2022-11-19T19:01:24.271Z,46.83
2022-11-19T19:03:52.272Z,47.57
2022-11-19T19:06:19.614Z,47.95
2022-11-19T19:08:46.601Z,48.52
2022-11-19T19:11:32.234Z,48.23
2022-11-19T19:13:59.012Z,48.29
2022-11-19T19:16:26.324Z,48.65
2022-11-19T19:18:52.900Z,48.64
2022-11-19T19:21:22.011Z,48.84
2022-11-19T19:23:49.184Z,48.45
2022-11-19T19:26:17.841Z,49.09
2022-11-19T19:28:50.370Z,48.92
2022-11-19T19:31:18.315Z,48.65
2022-11-19T19:33:48.345Z,48.77
2022-11-19T19:36:16.520Z,49.03
2022-11-19T19:38:43.356Z,48.64
2022-11-19T19:41:16.727Z,48.63
2022-11-19T19:43:43.980Z,48.45
2022-11-19T19:46:16.561Z,48.63
2022-11-19T19:48:48.286Z,48.35
2022-11-19T19:51:16.798Z,48.43
2022-11-19T19:53:43.690Z,48.75
2022-11-19T19:56:12.331Z,48.68
2022-11-19T19:58:39.269Z,48.49
2022-11-19T20:01:08.346Z,48.52
2022-11-19T20:03:36.272Z,48.56
2022-11-19T20:06:05.712Z,48.66
2022-11-19T20:08:33.954Z,48.52
2022-11-19T20:11:03.387Z,48.65
2022-11-19T20:13:32.017Z,48.90
2022-11-19T20:16:17.564Z,49.02
2022-11-19T20:18:46.571Z,48.77
2022-11-19T20:21:16.556Z,49.21
2022-11-19T20:23:43.558Z,49.03
2022-11-19T20:26:13.066Z,48.90
2022-11-19T20:28:40.219Z,48.74
2022-11-19T20:31:10.746Z,48.90
2022-11-19T20:33:38.534Z,49.06
2022-11-19T20:36:07.330Z,48.90
2022-11-19T20:38:38.793Z,49.13
2022-11-19T20:41:28.379Z,48.83
2022-11-19T20:44:14.419Z,49.05
2022-11-19T20:46:41.868Z,48.89
2022-11-19T20:49:10.566Z,49.25
2022-11-19T20:51:40.844Z,48.86
2022-11-19T20:54:08.856Z,48.98
2022-11-19T20:56:37.058Z,49.12
2022-11-19T20:59:04.849Z,49.22
2022-11-19T21:01:33.108Z,49.28
2022-11-19T21:03:59.985Z,49.06
2022-11-19T21:06:27.310Z,49.33
2022-11-19T21:08:53.860Z,49.38
2022-11-19T21:11:21.055Z,49.64
2022-11-19T21:13:47.635Z,49.91
2022-11-19T21:16:23.351Z,49.58
2022-11-19T21:18:50.657Z,49.49
2022-11-19T21:21:19.604Z,48.99
2022-11-19T21:23:46.407Z,49.33
2022-11-19T21:26:19.885Z,48.84
2022-11-19T21:28:49.440Z,48.87
